Time;durP1;ratioP1;P1;durP2;ratioP2;P2;SDS_P1;SDS_P2;PMS_P1;PMS_P2;Temp;Humidity;BMP_temperature;BMP_pressure;BME280_temperature;BME280_humidity;BME280_pressure;Samples;Min_cycle;Max_cycle;Signal;HPM_P1;HPM_P2
2021/08/19 00:01:32;;;;;;;10.60;9.60;;;17.60;99.90;;;;;;4911049;29;24429;-75
2021/08/19 00:03:58;;;;;;;10.85;9.95;;;17.60;99.90;;;;;;4913513;29;24497;-75
2021/08/19 00:06:23;;;;;;;11.48;10.38;;;17.60;99.90;;;;;;4912146;28;24423;-75
2021/08/19 00:08:49;;;;;;;10.90;9.53;;;17.60;99.90;;;;;;4912317;29;24802;-75
2021/08/19 00:11:17;;;;;;;9.90;9.00;;;17.60;99.90;;;;;;4913986;29;24442;-75
2021/08/19 00:13:43;;;;;;;10.27;9.27;;;17.70;99.90;;;;;;4911849;29;25020;-76
2021/08/19 00:16:09;;;;;;;10.25;9.38;;;17.70;99.90;;;;;;4911825;28;24419;-74
2021/08/19 00:18:40;;;;;;;10.20;9.30;;;17.50;99.90;;;;;;4911175;29;24985;-75
2021/08/19 00:21:06;;;;;;;11.10;9.70;;;17.60;99.90;;;;;;4928060;28;24942;-75
2021/08/19 00:23:34;;;;;;;10.10;9.20;;;17.60;99.90;;;;;;4910354;29;24439;-75
2021/08/19 00:26:05;;;;;;;10.00;9.00;;;17.60;99.90;;;;;;4912138;29;24522;-75
2021/08/19 00:28:31;;;;;;;9.35;8.55;;;17.60;99.90;;;;;;4908727;29;24450;-74
2021/08/19 00:30:57;;;;;;;10.40;9.50;;;17.60;99.90;;;;;;4911032;29;24542;-75
2021/08/19 00:33:24;;;;;;;9.70;8.80;;;17.60;99.90;;;;;;4908353;29;24498;-75
2021/08/19 00:35:49;;;;;;;10.25;9.45;;;17.60;99.90;;;;;;4912640;28;24886;-75
2021/08/19 00:38:15;;;;;;;11.38;10.38;;;17.60;99.90;;;;;;4912663;29;24571;-75
2021/08/19 00:40:40;;;;;;;10.80;9.90;;;17.60;99.90;;;;;;4913163;29;24479;-75
2021/08/19 00:43:07;;;;;;;10.87;9.90;;;17.50;99.90;;;;;;4915024;29;25017;-76
2021/08/19 00:45:36;;;;;;;11.30;10.20;;;17.50;99.90;;;;;;4914596;28;25022;-75
2021/08/19 00:48:02;;;;;;;10.50;9.60;;;17.40;99.90;;;;;;4914868;29;24957;-76
2021/08/19 00:50:28;;;;;;;9.98;8.98;;;17.40;99.90;;;;;;4913201;29;25584;-75
2021/08/19 00:52:54;;;;;;;9.67;8.87;;;17.50;99.90;;;;;;4917982;29;24494;-76
2021/08/19 00:55:24;;;;;;;9.90;9.00;;;17.50;99.90;;;;;;4924102;28;25624;-75
2021/08/19 00:57:54;;;;;;;10.95;9.35;;;17.40;99.90;;;;;;4916156;29;24525;-75
2021/08/19 01:00:22;;;;;;;10.43;9.43;;;17.30;99.90;;;;;;4915935;29;24487;-75
2021/08/19 01:02:54;;;;;;;9.90;9.00;;;17.30;99.90;;;;;;4914442;29;24435;-75
2021/08/19 01:05:23;;;;;;;10.00;9.20;;;17.30;99.90;;;;;;4913577;28;24999;-75
2021/08/19 01:07:49;;;;;;;10.63;9.63;;;17.30;99.90;;;;;;4913351;29;24439;-77
2021/08/19 01:10:19;;;;;;;10.20;9.20;;;17.30;99.90;;;;;;4918912;29;20785;-75
2021/08/19 01:12:48;;;;;;;10.00;9.10;;;17.30;99.90;;;;;;4914204;29;24433;-75
2021/08/19 01:15:14;;;;;;;9.98;9.07;;;17.30;99.90;;;;;;4912363;29;24582;-75
2021/08/19 01:17:51;;;;;;;10.60;9.60;;;17.40;99.90;;;;;;4914024;29;24444;-75
2021/08/19 01:20:16;;;;;;;10.40;9.40;;;17.50;99.90;;;;;;4916133;29;24434;-77
2021/08/19 01:22:44;;;;;;;10.47;9.53;;;17.50;99.90;;;;;;4915867;29;24490;-74
2021/08/19 01:25:11;;;;;;;10.40;9.40;;;17.50;99.90;;;;;;4915358;28;24514;-75
2021/08/19 01:27:37;;;;;;;10.02;9.10;;;17.50;99.90;;;;;;4915854;29;24450;-75
2021/08/19 01:30:03;;;;;;;10.43;9.53;;;17.50;99.90;;;;;;4917744;29;24447;-76
2021/08/19 01:32:34;;;;;;;10.90;9.52;;;17.40;99.90;;;;;;4916406;29;24435;-74
2021/08/19 01:35:02;;;;;;;10.38;9.48;;;17.40;99.90;;;;;;4914005;28;24626;-75
2021/08/19 01:37:31;;;;;;;10.63;9.52;;;17.40;99.90;;;;;;4914726;29;24450;-76
2021/08/19 01:39:59;;;;;;;10.52;9.60;;;17.40;99.90;;;;;;4918838;29;24462;-75
2021/08/19 01:42:27;;;;;;;9.77;8.88;;;17.40;99.90;;;;;;4914024;29;24443;-75
2021/08/19 01:44:52;;;;;;;9.10;8.20;;;17.50;99.90;;;;;;4912197;29;25010;-75
2021/08/19 01:47:21;;;;;;;10.00;9.10;;;17.50;99.90;;;;;;4914998;29;26021;-76
2021/08/19 01:49:47;;;;;;;10.60;9.57;;;17.40;99.90;;;;;;4911316;29;24478;-75
2021/08/19 01:52:12;;;;;;;10.10;9.20;;;17.40;99.90;;;;;;4914577;29;24474;-75
2021/08/19 01:54:40;;;;;;;10.25;9.35;;;17.40;99.90;;;;;;4912247;28;25971;-75
2021/08/19 01:57:05;;;;;;;9.82;8.93;;;17.40;99.90;;;;;;4913389;29;24436;-76
2021/08/19 01:59:31;;;;;;;10.40;9.40;;;17.40;99.90;;;;;;4912006;29;24566;-75
2021/08/19 02:02:02;;;;;;;10.47;9.47;;;17.40;99.90;;;;;;4911911;29;24554;-75
2021/08/19 02:04:30;;;;;;;10.50;9.60;;;17.40;99.90;;;;;;4914356;28;24945;-75
2021/08/19 02:06:56;;;;;;;9.82;8.93;;;17.30;99.90;;;;;;4913153;29;24538;-75
2021/08/19 02:09:22;;;;;;;10.07;8.98;;;17.40;99.90;;;;;;4914247;29;24443;-75
2021/08/19 02:11:47;;;;;;;10.40;9.40;;;17.40;99.90;;;;;;4918997;29;24455;-75
2021/08/19 02:14:17;;;;;;;10.70;9.80;;;17.40;99.90;;;;;;4912783;29;24431;-75
2021/08/19 02:16:46;;;;;;;10.03;9.13;;;17.50;99.90;;;;;;4917350;29;24429;-75
2021/08/19 02:19:12;;;;;;;10.75;9.73;;;17.50;99.90;;;;;;4918771;29;24539;-75
2021/08/19 02:21:37;;;;;;;10.80;9.90;;;17.50;99.90;;;;;;4916496;29;24434;-75
2021/08/19 02:24:03;;;;;;;11.50;10.30;;;17.30;99.90;;;;;;4917068;29;24489;-75
2021/08/19 02:26:31;;;;;;;11.20;10.20;;;17.20;99.90;;;;;;4917173;28;25024;-75
2021/08/19 02:28:59;;;;;;;11.48;10.27;;;17.20;99.90;;;;;;4922447;29;24602;-76
2021/08/19 02:31:30;;;;;;;11.65;10.55;;;17.10;99.90;;;;;;4917184;29;24530;-75
2021/08/19 02:33:56;;;;;;;11.13;10.02;;;17.10;99.90;;;;;;4915644;29;24493;-75
2021/08/19 02:36:28;;;;;;;11.60;10.47;;;17.10;99.90;;;;;;4914301;28;24451;-74
2021/08/19 02:38:56;;;;;;;12.35;10.93;;;17.10;99.90;;;;;;4911588;29;24517;-74
2021/08/19 02:41:22;;;;;;;11.97;10.87;;;17.00;99.90;;;;;;4914143;29;24442;-75
2021/08/19 02:43:47;;;;;;;11.45;10.35;;;17.10;99.90;;;;;;4915505;29;24431;-75
2021/08/19 02:46:13;;;;;;;12.60;11.40;;;17.10;99.90;;;;;;4916574;28;24481;-75
2021/08/19 02:48:42;;;;;;;11.68;10.57;;;17.00;99.90;;;;;;4920299;29;24555;-75
2021/08/19 02:51:10;;;;;;;12.50;11.40;;;17.10;99.90;;;;;;4911954;29;24438;-75
2021/08/19 02:53:38;;;;;;;11.93;10.80;;;17.10;99.90;;;;;;4920764;29;24433;-76
2021/08/19 02:56:04;;;;;;;11.43;10.32;;;17.20;99.90;;;;;;4911106;28;24422;-75
2021/08/19 02:58:32;;;;;;;11.20;10.20;;;17.10;99.90;;;;;;4917377;29;24488;-75
2021/08/19 03:01:00;;;;;;;11.43;10.32;;;17.10;99.90;;;;;;4913464;29;24435;-75
2021/08/19 03:03:26;;;;;;;11.30;10.20;;;17.10;99.90;;;;;;4913192;29;24465;-75
2021/08/19 03:05:54;;;;;;;10.90;9.80;;;17.10;99.90;;;;;;4913148;28;24418;-75
2021/08/19 03:08:22;;;;;;;9.57;8.70;;;17.10;99.90;;;;;;4917646;29;24530;-75
2021/08/19 03:10:47;;;;;;;8.63;7.82;;;17.10;99.90;;;;;;4918735;29;25035;-75
2021/08/19 03:13:15;;;;;;;8.80;8.00;;;17.00;99.90;;;;;;4916486;29;24438;-75
2021/08/19 03:15:43;;;;;;;8.60;7.90;;;17.00;99.90;;;;;;4914288;28;24635;-75
2021/08/19 03:18:09;;;;;;;8.32;7.53;;;16.90;99.90;;;;;;4914035;29;24470;-74
2021/08/19 03:20:34;;;;;;;7.97;7.27;;;16.80;99.90;;;;;;4916751;29;24602;-76
2021/08/19 03:23:08;;;;;;;7.95;7.18;;;16.90;99.90;;;;;;4918170;29;24597;-75
2021/08/19 03:25:33;;;;;;;7.40;6.80;;;16.80;99.90;;;;;;4909144;28;25089;-75
2021/08/19 03:28:03;;;;;;;7.40;6.70;;;16.80;99.90;;;;;;4918645;29;24918;-74
2021/08/19 03:30:29;;;;;;;7.28;6.60;;;16.80;99.90;;;;;;4910309;29;24732;-76
2021/08/19 03:33:00;;;;;;;6.70;6.10;;;16.70;99.90;;;;;;4917739;29;24506;-75
2021/08/19 03:35:30;;;;;;;6.90;6.20;;;16.80;99.90;;;;;;4929272;28;24593;-75
2021/08/19 03:37:56;;;;;;;6.80;6.20;;;16.80;99.90;;;;;;4937355;29;24426;-75
2021/08/19 03:40:23;;;;;;;6.40;5.90;;;16.90;99.90;;;;;;4931415;29;24471;-75
2021/08/19 03:42:49;;;;;;;6.72;6.13;;;16.80;99.90;;;;;;4919533;29;24454;-75
2021/08/19 03:45:19;;;;;;;5.90;5.40;;;16.90;99.90;;;;;;4917564;28;24423;-75
2021/08/19 03:47:49;;;;;;;6.20;5.70;;;16.90;99.90;;;;;;4915808;29;24546;-75
2021/08/19 03:50:14;;;;;;;5.70;5.20;;;16.90;99.90;;;;;;4916455;29;24555;-75
2021/08/19 03:52:40;;;;;;;6.07;5.57;;;16.90;99.90;;;;;;4912647;29;24435;-75
2021/08/19 03:55:06;;;;;;;5.30;4.80;;;16.90;99.90;;;;;;4910873;28;24490;-76
2021/08/19 03:57:34;;;;;;;5.30;4.80;;;16.80;99.90;;;;;;4915697;29;24670;-75
2021/08/19 04:00:03;;;;;;;5.80;5.28;;;16.70;99.90;;;;;;4906230;29;24529;-75
2021/08/19 04:02:31;;;;;;;5.50;5.03;;;16.80;99.90;;;;;;4909269;29;24542;-75
2021/08/19 04:05:02;;;;;;;5.30;4.80;;;16.80;99.90;;;;;;4909771;28;24824;-76
2021/08/19 04:07:27;;;;;;;5.43;4.93;;;16.80;99.90;;;;;;4907598;29;25076;-75
2021/08/19 04:09:55;;;;;;;6.40;5.70;;;16.90;99.90;;;;;;4916189;29;24458;-76
2021/08/19 04:12:20;;;;;;;6.10;5.50;;;16.90;99.90;;;;;;4914715;29;24443;-75
2021/08/19 04:14:48;;;;;;;6.55;5.57;;;16.90;99.90;;;;;;4914688;28;24505;-76
2021/08/19 04:17:14;;;;;;;6.45;5.85;;;16.90;99.90;;;;;;4918005;29;24559;-77
2021/08/19 04:19:39;;;;;;;6.88;5.68;;;17.00;99.90;;;;;;4920620;29;24879;-76
2021/08/19 04:22:10;;;;;;;7.30;6.00;;;17.00;99.90;;;;;;4920396;29;25043;-76
2021/08/19 04:24:37;;;;;;;7.10;6.32;;;17.00;99.90;;;;;;4916032;28;24511;-76
2021/08/19 04:27:03;;;;;;;6.00;5.40;;;17.00;99.90;;;;;;4919495;29;24791;-76
2021/08/19 04:29:33;;;;;;;6.15;5.55;;;17.00;99.90;;;;;;4914417;29;24477;-76
2021/08/19 04:32:00;;;;;;;7.00;6.40;;;17.00;99.90;;;;;;4920679;29;24856;-76
2021/08/19 04:34:29;;;;;;;6.82;6.22;;;17.00;99.90;;;;;;4912707;28;25794;-76
2021/08/19 04:36:56;;;;;;;6.30;5.70;;;17.00;99.90;;;;;;4917591;29;24657;-76
2021/08/19 04:39:24;;;;;;;6.70;6.03;;;17.00;99.90;;;;;;4918596;29;24800;-75
2021/08/19 04:41:50;;;;;;;6.80;6.20;;;17.00;99.90;;;;;;4913732;29;24427;-76
2021/08/19 04:44:19;;;;;;;7.35;6.72;;;16.90;99.90;;;;;;4914230;29;24437;-75
2021/08/19 04:46:44;;;;;;;6.80;6.30;;;17.00;99.90;;;;;;4920110;29;24431;-76
2021/08/19 04:49:13;;;;;;;7.00;6.40;;;17.00;99.90;;;;;;4918774;29;24445;-75
2021/08/19 04:51:41;;;;;;;7.03;6.40;;;17.00;99.90;;;;;;4920347;29;25032;-75
2021/08/19 04:54:12;;;;;;;6.95;6.25;;;17.00;99.90;;;;;;4914378;29;25007;-75
2021/08/19 04:56:43;;;;;;;7.50;6.80;;;17.00;99.90;;;;;;4914839;29;24476;-75
2021/08/19 04:59:10;;;;;;;6.80;6.20;;;17.00;99.90;;;;;;4914095;29;27735;-75
2021/08/19 05:01:38;;;;;;;6.90;6.30;;;17.00;99.90;;;;;;4919022;29;24463;-75
2021/08/19 05:04:04;;;;;;;6.63;6.03;;;17.00;99.90;;;;;;4914127;29;24790;-78
2021/08/19 05:06:31;;;;;;;7.10;6.50;;;17.00;99.90;;;;;;4922530;28;24668;-78
2021/08/19 05:09:03;;;;;;;7.30;6.70;;;17.00;99.90;;;;;;4941839;29;24442;-78
2021/08/19 05:11:34;;;;;;;6.70;6.10;;;17.00;99.90;;;;;;4918287;29;24488;-78
2021/08/19 05:14:00;;;;;;;7.20;6.50;;;17.10;99.90;;;;;;4917735;29;24466;-75
2021/08/19 05:16:27;;;;;;;6.70;6.20;;;17.10;99.90;;;;;;4913485;29;24501;-75
2021/08/19 05:18:52;;;;;;;7.20;6.60;;;17.10;99.90;;;;;;4919078;29;24931;-76
2021/08/19 05:21:28;;;;;;;6.60;6.10;;;17.00;99.90;;;;;;4919339;29;24983;-76
2021/08/19 05:23:54;;;;;;;7.70;6.90;;;17.10;99.90;;;;;;4911207;29;24518;-75
2021/08/19 05:26:20;;;;;;;7.93;7.23;;;17.20;99.90;;;;;;4915874;28;24581;-75
2021/08/19 05:28:54;;;;;;;8.52;7.82;;;17.20;99.90;;;;;;4916858;29;24506;-75
2021/08/19 05:31:19;;;;;;;9.52;8.63;;;17.20;99.90;;;;;;4912830;29;24853;-75
2021/08/19 05:33:45;;;;;;;9.90;9.00;;;17.20;99.90;;;;;;4916094;29;25026;-75
2021/08/19 05:36:18;;;;;;;9.63;8.85;;;17.20;99.90;;;;;;4915202;28;24573;-75
2021/08/19 05:38:44;;;;;;;9.90;9.10;;;17.20;99.90;;;;;;4921064;29;24570;-76
2021/08/19 05:41:09;;;;;;;10.40;9.50;;;17.20;99.90;;;;;;4921539;29;24498;-77
2021/08/19 05:43:38;;;;;;;10.68;9.77;;;17.10;99.90;;;;;;4922580;29;24937;-76
2021/08/19 05:46:26;;;;;;;11.02;10.02;;;17.10;99.90;;;;;;4924026;28;24454;-77
2021/08/19 05:48:54;;;;;;;11.48;10.48;;;17.10;99.90;;;;;;4920148;29;25027;-76
2021/08/19 05:51:22;;;;;;;11.68;10.68;;;17.10;99.90;;;;;;4920355;29;25070;-76
2021/08/19 05:53:47;;;;;;;11.90;10.80;;;17.10;99.90;;;;;;4921730;29;24423;-76
2021/08/19 05:56:15;;;;;;;12.30;11.20;;;17.00;99.90;;;;;;4923220;28;24422;-75
2021/08/19 05:58:46;;;;;;;12.77;11.60;;;17.10;99.90;;;;;;4921651;29;25765;-75
2021/08/19 06:01:14;;;;;;;11.43;10.38;;;17.10;99.90;;;;;;4925946;29;24471;-75
2021/08/19 06:03:40;;;;;;;10.77;9.85;;;17.10;99.90;;;;;;4907728;29;24855;-76
2021/08/19 06:06:05;;;;;;;11.10;10.00;;;17.10;99.90;;;;;;4915475;28;24423;-76
2021/08/19 06:08:31;;;;;;;10.40;9.40;;;17.10;99.90;;;;;;4918307;29;24430;-76
2021/08/19 06:10:57;;;;;;;10.85;9.85;;;17.20;99.90;;;;;;4920970;29;25216;-75
2021/08/19 06:13:22;;;;;;;10.10;9.10;;;17.10;99.90;;;;;;4914241;29;24485;-75
2021/08/19 06:15:50;;;;;;;10.65;9.75;;;17.20;99.90;;;;;;4920578;28;24435;-76
2021/08/19 06:18:18;;;;;;;11.40;10.40;;;17.20;99.90;;;;;;4938491;28;24431;-80
2021/08/19 06:20:44;;;;;;;11.55;10.55;;;17.40;99.90;;;;;;4935405;28;24443;-77
2021/08/19 06:23:13;;;;;;;11.10;10.10;;;17.40;99.90;;;;;;4917668;29;24464;-76
2021/08/19 06:25:42;;;;;;;11.60;10.50;;;17.50;99.90;;;;;;4917375;28;24424;-76
2021/08/19 06:28:09;;;;;;;10.90;9.90;;;17.60;99.90;;;;;;4918974;29;25007;-76
2021/08/19 06:30:35;;;;;;;11.30;10.20;;;17.60;99.90;;;;;;4934038;28;24459;-76
2021/08/19 06:33:01;;;;;;;10.90;9.80;;;17.60;99.90;;;;;;4919533;29;24518;-76
2021/08/19 06:35:26;;;;;;;10.23;9.23;;;17.60;99.90;;;;;;4920222;28;24427;-76
2021/08/19 06:37:52;;;;;;;10.80;9.70;;;17.70;99.90;;;;;;4919338;29;24434;-75
2021/08/19 06:40:18;;;;;;;10.43;9.35;;;17.70;99.90;;;;;;4921325;29;24593;-76
2021/08/19 06:42:43;;;;;;;9.53;8.53;;;17.70;99.90;;;;;;4925466;29;25077;-76
2021/08/19 06:45:10;;;;;;;9.70;8.70;;;17.90;99.90;;;;;;4919785;28;25039;-76
2021/08/19 06:47:35;;;;;;;9.60;8.70;;;17.70;99.90;;;;;;4921701;29;24803;-77
2021/08/19 06:50:01;;;;;;;11.40;9.10;;;17.80;99.90;;;;;;4925296;29;24446;-76
2021/08/19 06:52:26;;;;;;;9.60;8.70;;;17.70;99.90;;;;;;4920069;29;25026;-76
2021/08/19 06:54:52;;;;;;;10.60;9.50;;;17.70;99.90;;;;;;4922235;28;24921;-76
2021/08/19 06:57:18;;;;;;;10.48;9.38;;;17.80;99.90;;;;;;4921210;29;24431;-76
2021/08/19 06:59:43;;;;;;;10.10;9.10;;;17.80;99.90;;;;;;4922150;29;25108;-76
2021/08/19 07:02:09;;;;;;;10.23;9.23;;;17.80;99.90;;;;;;4920918;29;24435;-76
2021/08/19 07:04:35;;;;;;;10.70;9.60;;;17.70;99.90;;;;;;4917923;28;24486;-76
2021/08/19 07:07:00;;;;;;;10.43;9.38;;;17.60;99.90;;;;;;4924445;29;24430;-76
2021/08/19 07:09:26;;;;;;;10.63;9.53;;;17.50;99.90;;;;;;4924750;29;24485;-76
2021/08/19 07:11:51;;;;;;;9.70;8.70;;;17.50;99.90;;;;;;4926068;29;24844;-76
2021/08/19 07:14:17;;;;;;;9.23;8.30;;;17.60;99.90;;;;;;4924106;29;24487;-76
2021/08/19 07:16:42;;;;;;;9.80;8.80;;;17.60;99.90;;;;;;4921878;28;24844;-76
2021/08/19 07:19:08;;;;;;;10.25;9.20;;;17.60;99.90;;;;;;4919382;29;24431;-76
2021/08/19 07:21:37;;;;;;;10.80;8.37;;;17.60;99.90;;;;;;4919312;29;24427;-76
2021/08/19 07:24:02;;;;;;;8.93;7.93;;;17.70;99.90;;;;;;4918013;29;24424;-76
2021/08/19 07:26:28;;;;;;;8.60;7.70;;;17.80;99.90;;;;;;4916379;28;24430;-76
2021/08/19 07:28:54;;;;;;;8.70;7.90;;;17.70;99.90;;;;;;4925852;29;24435;-76
2021/08/19 07:31:20;;;;;;;8.82;7.40;;;17.80;99.90;;;;;;4918904;29;24967;-77
2021/08/19 07:33:46;;;;;;;7.95;7.15;;;17.80;99.90;;;;;;4917596;29;24474;-76
2021/08/19 07:36:14;;;;;;;8.55;7.25;;;17.90;99.90;;;;;;4924461;28;24862;-77
2021/08/19 07:38:40;;;;;;;7.50;6.80;;;17.90;99.90;;;;;;4917919;29;24429;-76
2021/08/19 07:41:06;;;;;;;8.52;7.20;;;18.00;99.90;;;;;;4919156;29;24435;-76
2021/08/19 07:43:33;;;;;;;7.03;6.17;;;18.00;99.90;;;;;;4918445;29;24428;-76
2021/08/19 07:45:59;;;;;;;6.80;6.10;;;18.00;99.90;;;;;;4924650;28;20807;-77
2021/08/19 07:48:24;;;;;;;6.40;5.80;;;17.90;99.90;;;;;;4918359;29;24550;-77
2021/08/19 07:50:50;;;;;;;6.50;5.90;;;18.00;99.90;;;;;;4918132;29;24434;-76
2021/08/19 07:53:16;;;;;;;6.68;5.93;;;18.10;99.90;;;;;;4918958;29;25050;-77
2021/08/19 07:55:43;;;;;;;6.00;5.50;;;18.20;99.90;;;;;;4922026;28;24438;-77
2021/08/19 07:58:09;;;;;;;5.88;5.25;;;18.20;99.90;;;;;;4922310;29;24407;-77
2021/08/19 08:00:36;;;;;;;5.60;5.00;;;18.00;99.90;;;;;;4921675;29;25053;-77
2021/08/19 08:03:01;;;;;;;6.78;5.90;;;18.10;99.90;;;;;;4919453;29;24490;-78
2021/08/19 08:05:30;;;;;;;6.20;5.60;;;18.20;99.90;;;;;;4913807;28;24506;-77
2021/08/19 08:08:02;;;;;;;7.00;6.30;;;18.20;99.90;;;;;;4918892;29;25089;-75
2021/08/19 08:10:30;;;;;;;7.60;6.80;;;18.20;99.90;;;;;;4920439;29;25097;-75
2021/08/19 08:12:56;;;;;;;6.53;5.82;;;18.30;99.90;;;;;;4921599;29;24451;-75
2021/08/19 08:15:21;;;;;;;7.53;6.72;;;18.30;99.90;;;;;;4919654;29;24836;-76
2021/08/19 08:17:47;;;;;;;7.80;6.50;;;18.30;99.90;;;;;;4919585;29;24445;-76
2021/08/19 08:20:15;;;;;;;7.45;6.50;;;18.20;99.90;;;;;;4921125;29;24804;-76
2021/08/19 08:22:43;;;;;;;7.30;6.60;;;18.30;99.90;;;;;;4919483;29;24447;-76
2021/08/19 08:25:10;;;;;;;7.72;7.03;;;18.30;99.90;;;;;;4915575;28;24435;-78
2021/08/19 08:27:35;;;;;;;7.40;6.70;;;18.20;99.90;;;;;;4919469;29;24435;-76
2021/08/19 08:30:02;;;;;;;6.97;6.20;;;18.20;99.90;;;;;;4922553;29;24467;-77
2021/08/19 08:32:30;;;;;;;6.95;6.25;;;18.20;99.90;;;;;;4919092;29;24530;-76
2021/08/19 08:34:56;;;;;;;7.50;6.30;;;18.20;99.90;;;;;;4947823;28;24514;-76
2021/08/19 08:37:24;;;;;;;7.10;6.40;;;18.30;99.90;;;;;;4943185;29;24422;-75
2021/08/19 08:39:49;;;;;;;7.20;6.50;;;18.30;99.90;;;;;;4936973;29;24498;-76
2021/08/19 08:42:15;;;;;;;7.00;6.30;;;18.20;99.90;;;;;;4923793;29;25272;-76
2021/08/19 08:44:41;;;;;;;6.90;6.20;;;18.30;99.90;;;;;;4923578;28;24401;-76
2021/08/19 08:47:08;;;;;;;7.93;6.27;;;18.20;99.90;;;;;;4936241;28;24446;-76
2021/08/19 08:49:34;;;;;;;7.10;6.40;;;18.30;99.90;;;;;;4919964;29;24478;-77
2021/08/19 08:52:01;;;;;;;7.17;6.20;;;18.30;99.90;;;;;;4920215;29;24483;-77
2021/08/19 08:54:29;;;;;;;7.60;6.30;;;18.30;99.90;;;;;;4919102;28;24424;-77
2021/08/19 08:56:56;;;;;;;7.30;6.50;;;18.40;99.90;;;;;;4923067;29;24442;-77
2021/08/19 08:59:22;;;;;;;6.63;6.03;;;18.60;99.90;;;;;;4919389;29;24759;-76
2021/08/19 09:01:47;;;;;;;6.97;6.38;;;18.70;99.90;;;;;;4926983;29;24501;-76
2021/08/19 09:04:13;;;;;;;6.45;5.85;;;18.80;99.90;;;;;;4923803;29;24607;-76
2021/08/19 09:06:41;;;;;;;6.60;5.80;;;18.90;99.90;;;;;;4921690;28;24522;-77
2021/08/19 09:09:39;;;;;;;6.82;5.93;;;19.10;99.90;;;;;;4920771;29;24502;-77
2021/08/19 09:12:07;;;;;;;6.00;5.45;;;19.20;99.90;;;;;;4916797;29;24490;-77
2021/08/19 09:14:35;;;;;;;6.20;5.60;;;19.20;99.90;;;;;;4920712;28;24441;-77
2021/08/19 09:17:02;;;;;;;7.05;6.00;;;19.20;99.90;;;;;;4927189;29;24502;-77
2021/08/19 09:19:30;;;;;;;7.05;5.90;;;19.20;99.90;;;;;;4924227;29;24438;-77
2021/08/19 09:22:05;;;;;;;6.70;6.00;;;19.20;99.90;;;;;;4925392;29;24423;-77
2021/08/19 09:24:32;;;;;;;6.93;6.23;;;19.20;99.90;;;;;;4928373;28;24534;-77
2021/08/19 09:27:13;;;;;;;7.03;6.18;;;19.20;99.90;;;;;;4926077;29;24422;-77
2021/08/19 09:29:39;;;;;;;8.40;5.90;;;19.20;99.90;;;;;;4923423;29;24482;-76
2021/08/19 09:32:17;;;;;;;6.82;6.10;;;19.00;99.90;;;;;;4923787;29;24438;-76
2021/08/19 09:34:46;;;;;;;7.63;6.18;;;19.10;99.90;;;;;;4918777;28;24431;-77
2021/08/19 09:37:14;;;;;;;7.05;5.95;;;19.20;99.90;;;;;;4937229;28;24562;-76
2021/08/19 09:39:48;;;;;;;9.02;6.65;;;19.30;99.90;;;;;;4921654;29;24533;-77
2021/08/19 09:42:15;;;;;;;7.97;6.10;;;19.20;99.90;;;;;;4927346;29;24431;-76
2021/08/19 09:44:50;;;;;;;8.27;6.00;;;19.20;99.90;;;;;;4923809;29;24991;-80
2021/08/19 09:47:33;;;;;;;7.10;6.10;;;19.20;99.90;;;;;;4924308;29;24517;-80
2021/08/19 09:50:11;;;;;;;7.68;6.20;;;19.30;99.90;;;;;;4929060;29;24824;-82
2021/08/19 09:52:40;;;;;;;8.00;6.70;;;19.50;99.90;;;;;;4934151;29;24795;-82
2021/08/19 09:55:29;;;;;;;6.82;6.22;;;19.60;99.90;;;;;;4926322;28;24518;-81
2021/08/19 09:57:57;;;;;;;7.47;6.20;;;19.50;99.90;;;;;;4917646;29;24661;-80
2021/08/19 10:00:30;;;;;;;6.40;5.80;;;19.60;99.90;;;;;;4927620;29;24446;-82
2021/08/19 10:02:58;;;;;;;7.10;6.25;;;19.60;99.90;;;;;;4922855;29;24470;-81
2021/08/19 10:05:26;;;;;;;6.82;6.03;;;19.60;99.90;;;;;;4938344;28;24534;-81
2021/08/19 10:07:52;;;;;;;8.50;6.30;;;19.60;99.90;;;;;;4925550;29;24520;-80
2021/08/19 10:10:18;;;;;;;6.90;6.20;;;19.70;99.90;;;;;;4921772;29;24450;-80
2021/08/19 10:12:47;;;;;;;6.50;5.80;;;19.70;99.90;;;;;;4923174;29;24431;-81
2021/08/19 10:15:14;;;;;;;6.90;5.97;;;19.70;99.90;;;;;;4921242;28;24442;-80
2021/08/19 10:17:53;;;;;;;7.00;5.60;;;19.60;99.90;;;;;;4922803;29;24466;-81
2021/08/19 10:20:28;;;;;;;6.70;6.00;;;19.60;99.90;;;;;;4927947;29;24451;-82
2021/08/19 10:22:55;;;;;;;6.55;5.75;;;19.60;99.90;;;;;;4928717;29;24445;-81
2021/08/19 10:25:25;;;;;;;6.45;5.85;;;19.60;99.90;;;;;;4929192;28;24427;-81
2021/08/19 10:28:23;;;;;;;6.90;6.27;;;19.40;99.90;;;;;;4924999;29;24439;-81
2021/08/19 10:30:49;;;;;;;6.40;5.80;;;19.50;99.90;;;;;;4914255;29;24501;-81
2021/08/19 10:33:37;;;;;;;6.43;5.82;;;19.50;99.90;;;;;;4924538;29;24474;-81
2021/08/19 10:36:12;;;;;;;6.75;6.10;;;19.50;99.90;;;;;;4928822;28;24458;-81
2021/08/19 10:38:39;;;;;;;7.00;6.30;;;19.50;99.90;;;;;;4928731;29;24534;-81
2021/08/19 10:41:30;;;;;;;7.00;6.30;;;19.60;99.90;;;;;;4937878;28;24439;-81
2021/08/19 10:44:08;;;;;;;7.88;6.53;;;19.60;99.90;;;;;;4924872;29;25022;-80
2021/08/19 10:46:38;;;;;;;7.00;6.30;;;19.60;99.90;;;;;;4932416;28;24422;-79
2021/08/19 10:49:04;;;;;;;7.10;6.40;;;19.60;99.90;;;;;;4929282;29;24517;-80
2021/08/19 10:51:30;;;;;;;7.75;6.95;;;19.70;99.90;;;;;;4934693;28;24497;-80
2021/08/19 10:53:57;;;;;;;8.00;6.47;;;19.90;99.90;;;;;;4921535;29;24450;-80
2021/08/19 10:56:41;;;;;;;7.85;6.03;;;20.00;99.90;;;;;;4921045;28;24537;-81
2021/08/19 10:59:33;;;;;;;8.23;6.20;;;20.00;99.90;;;;;;4926222;29;24435;-83
2021/08/19 11:02:00;;;;;;;8.90;6.80;;;20.00;99.90;;;;;;4916603;29;24427;-81
2021/08/19 11:04:46;;;;;;;8.50;6.32;;;20.00;99.90;;;;;;4920804;28;24427;-81
2021/08/19 11:07:48;;;;;;;7.07;6.38;;;20.10;99.90;;;;;;4923600;29;24499;-81
2021/08/19 11:10:28;;;;;;;8.73;6.47;;;20.10;99.90;;;;;;4924176;29;24434;-82
2021/08/19 11:13:11;;;;;;;8.05;6.85;;;20.20;99.90;;;;;;4923125;29;24531;-81
2021/08/19 11:15:48;;;;;;;9.23;6.80;;;20.40;99.90;;;;;;4932526;28;24568;-80
2021/08/19 11:18:29;;;;;;;7.70;6.68;;;20.50;99.90;;;;;;4942503;29;24513;-81
2021/08/19 11:20:55;;;;;;;8.40;6.27;;;20.70;99.90;;;;;;4929389;29;20782;-86
2021/08/19 11:23:34;;;;;;;7.03;6.27;;;20.80;99.90;;;;;;4939521;29;24898;-86
2021/08/19 11:26:06;;;;;;;6.93;5.70;;;20.90;99.90;;;;;;4945492;29;24426;-87
2021/08/19 11:28:43;;;;;;;8.07;6.28;;;21.20;99.90;;;;;;4933870;29;24436;-81
2021/08/19 11:31:13;;;;;;;6.75;6.07;;;21.40;99.90;;;;;;4927138;29;24444;-86
2021/08/19 11:33:43;;;;;;;8.37;6.20;;;21.40;99.90;;;;;;4930787;29;25093;-84
2021/08/19 11:36:12;;;;;;;7.40;6.30;;;21.60;99.90;;;;;;4929465;29;24430;-83
2021/08/19 11:38:37;;;;;;;7.25;6.55;;;21.50;99.90;;;;;;4931381;29;24431;-86
2021/08/19 11:41:20;;;;;;;7.70;6.45;;;21.50;99.90;;;;;;4928054;29;20773;-84
2021/08/19 11:43:46;;;;;;;7.60;6.53;;;21.50;99.90;;;;;;4935293;29;24489;-85
2021/08/19 11:46:27;;;;;;;7.00;6.13;;;21.50;99.90;;;;;;4931598;29;24427;-84
2021/08/19 11:49:02;;;;;;;7.45;6.70;;;21.60;99.90;;;;;;4933203;29;20781;-84
2021/08/19 11:51:33;;;;;;;8.37;6.30;;;21.40;99.90;;;;;;4931559;29;24530;-88
2021/08/19 11:54:07;;;;;;;7.38;6.57;;;21.30;99.90;;;;;;4929403;29;24527;-84
2021/08/19 11:56:37;;;;;;;7.00;6.30;;;21.40;99.90;;;;;;4934848;29;24512;-84
2021/08/19 11:59:04;;;;;;;7.25;6.45;;;21.50;99.90;;;;;;4927047;29;25029;-75
2021/08/19 12:01:31;;;;;;;7.63;6.30;;;21.50;99.90;;;;;;4920144;29;24427;-77
2021/08/19 12:03:59;;;;;;;7.13;6.43;;;21.50;99.90;;;;;;4923071;29;24836;-77
2021/08/19 12:06:27;;;;;;;7.27;6.57;;;21.50;99.90;;;;;;4923551;28;25053;-82
2021/08/19 12:08:58;;;;;;;6.97;6.28;;;21.40;99.90;;;;;;4922919;29;24427;-78
2021/08/19 12:11:26;;;;;;;7.10;6.40;;;21.30;99.90;;;;;;4920042;29;24412;-80
2021/08/19 12:13:53;;;;;;;8.70;6.53;;;21.30;99.90;;;;;;4924360;29;24908;-83
2021/08/19 12:16:21;;;;;;;8.13;6.40;;;21.10;99.90;;;;;;4920784;29;24855;-78
2021/08/19 12:19:11;;;;;;;9.05;6.63;;;21.20;99.90;;;;;;4926792;29;24498;-79
2021/08/19 12:21:39;;;;;;;8.05;6.57;;;21.20;99.90;;;;;;4938086;28;24800;-78
2021/08/19 12:24:19;;;;;;;6.82;6.13;;;21.30;99.90;;;;;;4913866;29;24787;-76
2021/08/19 12:27:09;;;;;;;7.37;6.30;;;21.40;99.90;;;;;;4921557;29;24534;-77
2021/08/19 12:29:48;;;;;;;7.00;6.30;;;21.40;99.90;;;;;;4916402;29;24434;-76
2021/08/19 12:32:25;;;;;;;8.52;5.93;;;21.50;99.90;;;;;;4924227;29;24540;-83
2021/08/19 12:34:56;;;;;;;6.90;6.20;;;21.50;99.90;;;;;;4921236;29;24449;-80
2021/08/19 12:37:22;;;;;;;6.63;5.90;;;21.50;99.90;;;;;;4931796;29;24446;-76
2021/08/19 12:39:48;;;;;;;7.32;6.03;;;21.50;99.90;;;;;;4924199;29;24447;-78
2021/08/19 12:42:14;;;;;;;7.53;6.40;;;21.50;99.90;;;;;;4930563;29;24557;-78
2021/08/19 12:45:00;;;;;;;6.32;5.72;;;21.60;99.90;;;;;;4922474;28;24515;-78
2021/08/19 12:47:36;;;;;;;6.47;5.88;;;21.60;99.90;;;;;;4922435;29;20797;-76
2021/08/19 12:50:02;;;;;;;6.97;5.90;;;21.70;99.90;;;;;;4923758;29;20888;-81
2021/08/19 12:52:28;;;;;;;6.90;6.20;;;21.60;99.90;;;;;;4925488;29;24562;-78